Time;durP1;ratioP1;P1;durP2;ratioP2;P2;SDS_P1;SDS_P2;PMS_P1;PMS_P2;Temp;Humidity;BMP_temperature;BMP_pressure;BME280_temperature;BME280_humidity;BME280_pressure;Samples;Min_cycle;Max_cycle;Signal;HPM_P1;HPM_P2
2020/12/20 00:00:15;;;;;;;36.30;15.67;;;13.90;45.50;;;;;;5081130;28;20934;-83
2020/12/20 00:02:46;;;;;;;32.73;15.87;;;13.90;45.50;;;;;;5071286;28;20995;-83
2020/12/20 00:05:13;;;;;;;32.77;15.73;;;14.10;43.80;;;;;;5069564;28;20464;-83
2020/12/20 00:07:39;;;;;;;36.70;17.60;;;14.10;45.00;;;;;;5062616;28;20814;-83
2020/12/20 00:10:06;;;;;;;34.23;15.20;;;14.10;44.90;;;;;;5059992;28;20440;-83
2020/12/20 00:12:32;;;;;;;32.27;15.67;;;14.10;44.30;;;;;;5071897;28;20440;-83
2020/12/20 00:14:59;;;;;;;48.33;16.63;;;14.30;45.60;;;;;;5080897;28;20454;-83
2020/12/20 00:17:26;;;;;;;26.63;15.10;;;14.10;42.90;;;;;;5080247;28;20937;-83
2020/12/20 00:19:53;;;;;;;27.77;14.97;;;13.70;43.10;;;;;;5078544;28;20940;-83
2020/12/20 00:22:19;;;;;;;30.27;15.77;;;13.50;42.90;;;;;;5068880;28;20476;-82
2020/12/20 00:24:46;;;;;;;32.83;14.10;;;13.60;44.60;;;;;;5057318;28;20469;-83
2020/12/20 00:27:13;;;;;;;31.93;14.67;;;13.10;46.90;;;;;;5056680;28;20452;-83
2020/12/20 00:29:40;;;;;;;28.93;14.40;;;13.30;46.60;;;;;;5056300;28;20459;-83
2020/12/20 00:32:09;;;;;;;27.33;14.33;;;13.50;45.90;;;;;;5056495;28;20511;-84
2020/12/20 00:34:36;;;;;;;25.30;14.60;;;13.40;43.50;;;;;;5055563;28;20464;-83
2020/12/20 00:37:04;;;;;;;24.33;14.37;;;13.30;43.60;;;;;;5056003;28;20552;-83
2020/12/20 00:39:30;;;;;;;25.53;14.33;;;13.30;45.40;;;;;;5065151;28;20467;-83
2020/12/20 00:41:58;;;;;;;28.37;13.80;;;13.10;43.80;;;;;;5076874;28;20485;-84
2020/12/20 00:44:25;;;;;;;22.97;13.23;;;12.60;43.30;;;;;;5075412;28;20466;-83
2020/12/20 00:46:53;;;;;;;30.77;13.97;;;12.50;45.80;;;;;;5068748;28;20543;-84
2020/12/20 00:49:20;;;;;;;27.10;13.50;;;12.60;45.40;;;;;;5054823;28;20542;-84
2020/12/20 00:51:47;;;;;;;30.77;13.33;;;12.90;45.20;;;;;;5055390;28;20871;-83
2020/12/20 00:54:14;;;;;;;22.40;12.70;;;13.20;47.10;;;;;;5053964;28;20851;-86
2020/12/20 00:56:40;;;;;;;35.70;13.20;;;13.30;46.10;;;;;;5053942;28;20548;-84
2020/12/20 00:59:07;;;;;;;20.57;12.10;;;13.70;45.80;;;;;;5054903;28;20456;-85
2020/12/20 01:01:33;;;;;;;21.07;12.10;;;14.10;45.10;;;;;;5054212;28;20914;-84
2020/12/20 01:03:59;;;;;;;24.23;13.10;;;14.20;45.00;;;;;;5060601;28;20518;-84
2020/12/20 01:06:26;;;;;;;24.80;12.97;;;14.20;43.60;;;;;;5074299;28;20565;-85
2020/12/20 01:08:53;;;;;;;27.17;13.60;;;14.10;43.40;;;;;;5074457;28;20475;-85
2020/12/20 01:11:21;;;;;;;23.03;13.50;;;14.00;43.80;;;;;;5075041;28;20483;-83
2020/12/20 01:13:49;;;;;;;21.40;12.40;;;14.20;45.00;;;;;;5068695;28;21011;-83
2020/12/20 01:16:15;;;;;;;30.10;12.20;;;14.20;44.50;;;;;;5055416;28;20484;-84
2020/12/20 01:18:42;;;;;;;21.07;12.20;;;14.00;45.00;;;;;;5054261;28;20926;-85
2020/12/20 01:21:09;;;;;;;21.23;12.73;;;14.00;44.30;;;;;;5054620;28;20456;-83
2020/12/20 01:23:35;;;;;;;21.30;12.47;;;14.00;45.30;;;;;;5054096;28;20476;-84
2020/12/20 01:26:03;;;;;;;17.70;10.70;;;14.20;42.60;;;;;;5054980;28;20452;-83
2020/12/20 01:28:31;;;;;;;20.90;12.10;;;14.20;44.80;;;;;;5053327;28;20956;-84
2020/12/20 01:30:58;;;;;;;19.70;11.17;;;14.10;42.10;;;;;;5054027;28;20532;-83
2020/12/20 01:33:25;;;;;;;20.50;11.20;;;13.80;44.20;;;;;;5060563;28;20874;-84
2020/12/20 01:35:51;;;;;;;21.77;12.07;;;13.90;45.60;;;;;;5074168;28;20486;-82
2020/12/20 01:38:18;;;;;;;25.43;12.97;;;14.30;45.60;;;;;;5062166;28;20451;-82
2020/12/20 01:40:50;;;;;;;21.30;12.53;;;14.30;44.50;;;;;;5054700;28;20437;-84
2020/12/20 01:43:18;;;;;;;21.10;12.50;;;14.30;43.60;;;;;;5054318;28;20476;-84
2020/12/20 01:45:45;;;;;;;22.70;13.30;;;14.30;44.10;;;;;;5054996;28;20452;-83
2020/12/20 01:48:12;;;;;;;24.63;13.33;;;14.20;43.40;;;;;;5053862;28;20474;-84
2020/12/20 01:50:42;;;;;;;24.17;14.07;;;14.20;43.20;;;;;;5054446;28;20483;-83
2020/12/20 01:53:11;;;;;;;24.57;13.50;;;14.10;41.80;;;;;;5054497;28;20453;-83
2020/12/20 01:55:38;;;;;;;18.80;11.80;;;13.50;43.40;;;;;;5078335;22;20491;-86
2020/12/20 01:58:04;;;;;;;20.27;12.17;;;13.20;45.50;;;;;;5057975;28;20444;-86
2020/12/20 02:00:32;;;;;;;22.03;12.40;;;13.10;45.20;;;;;;5055587;28;20465;-86
2020/12/20 02:02:58;;;;;;;21.23;13.00;;;12.50;46.50;;;;;;5055829;28;20514;-85
2020/12/20 02:05:25;;;;;;;23.30;13.47;;;12.50;46.50;;;;;;5056728;28;20459;-85
2020/12/20 02:07:52;;;;;;;17.30;10.97;;;12.70;45.70;;;;;;5058708;28;20443;-85
2020/12/20 02:10:18;;;;;;;20.03;12.23;;;13.00;47.00;;;;;;5059403;28;20458;-85
2020/12/20 02:12:45;;;;;;;17.10;11.40;;;13.40;46.60;;;;;;5058926;28;20449;-85
2020/12/20 02:15:13;;;;;;;22.20;12.93;;;13.50;46.50;;;;;;5058569;28;20785;-85
2020/12/20 02:17:40;;;;;;;26.33;13.60;;;13.50;45.20;;;;;;5058209;28;20428;-85
2020/12/20 02:20:07;;;;;;;23.50;11.83;;;13.40;45.50;;;;;;5057327;28;20448;-85
2020/12/20 02:22:34;;;;;;;23.00;12.20;;;13.80;46.40;;;;;;5056738;28;20514;-85
2020/12/20 02:25:01;;;;;;;19.73;11.83;;;14.10;46.30;;;;;;5056894;28;20531;-85
2020/12/20 02:27:27;;;;;;;19.00;11.50;;;14.30;45.20;;;;;;5056716;28;20440;-85
2020/12/20 02:29:54;;;;;;;18.20;11.57;;;14.30;45.70;;;;;;5057002;28;20506;-85
2020/12/20 02:32:20;;;;;;;20.27;11.83;;;14.30;45.50;;;;;;5057680;28;20460;-85
2020/12/20 02:34:47;;;;;;;25.40;12.37;;;14.40;45.60;;;;;;5056797;28;20472;-85
2020/12/20 02:37:13;;;;;;;24.13;12.43;;;14.00;44.20;;;;;;5056607;28;20948;-85
2020/12/20 02:39:41;;;;;;;25.60;12.23;;;13.60;43.40;;;;;;5056806;28;20522;-85
2020/12/20 02:42:08;;;;;;;23.90;12.00;;;12.90;45.10;;;;;;5056729;28;20480;-85
2020/12/20 02:44:35;;;;;;;22.43;13.17;;;12.80;45.00;;;;;;5056767;28;20491;-85
2020/12/20 02:47:02;;;;;;;19.90;11.63;;;12.70;44.20;;;;;;5056905;28;20448;-85
2020/12/20 02:49:28;;;;;;;21.23;13.13;;;12.80;45.10;;;;;;5056541;28;20431;-85
2020/12/20 02:51:55;;;;;;;18.77;12.33;;;12.70;45.30;;;;;;5056873;28;20994;-85
2020/12/20 02:54:21;;;;;;;20.73;13.70;;;12.70;46.80;;;;;;5056510;28;20472;-85
2020/12/20 02:56:49;;;;;;;24.30;13.50;;;12.70;45.00;;;;;;5056556;28;20515;-85
2020/12/20 02:59:15;;;;;;;22.43;13.50;;;12.70;46.30;;;;;;5056781;28;20439;-85
2020/12/20 03:01:42;;;;;;;26.03;12.67;;;12.90;45.50;;;;;;5056963;28;20452;-86
2020/12/20 03:04:08;;;;;;;18.70;12.20;;;13.00;46.90;;;;;;5056306;28;20490;-85
2020/12/20 03:06:35;;;;;;;21.70;11.90;;;13.30;46.10;;;;;;5056246;28;20938;-85
2020/12/20 03:09:01;;;;;;;22.33;12.70;;;13.40;46.10;;;;;;5056211;28;20459;-85
2020/12/20 03:11:28;;;;;;;19.30;12.20;;;13.30;44.80;;;;;;5056880;28;20463;-86
2020/12/20 03:13:55;;;;;;;21.47;12.50;;;13.80;45.10;;;;;;5056674;28;20464;-85
2020/12/20 03:16:22;;;;;;;19.20;12.70;;;13.80;45.80;;;;;;5056477;28;20448;-85
2020/12/20 03:18:48;;;;;;;22.37;13.73;;;13.40;44.20;;;;;;5055900;28;20502;-86
2020/12/20 03:21:15;;;;;;;20.70;12.10;;;13.50;44.80;;;;;;5056216;28;20455;-85
2020/12/20 03:23:44;;;;;;;19.63;12.30;;;13.30;45.00;;;;;;5057439;28;20533;-86
2020/12/20 03:26:11;;;;;;;25.27;12.70;;;13.40;46.10;;;;;;5061136;28;20490;-85
2020/12/20 03:28:37;;;;;;;22.10;11.53;;;13.60;45.80;;;;;;5060463;28;20563;-85
2020/12/20 03:31:04;;;;;;;19.87;11.10;;;13.80;45.60;;;;;;5061315;28;20474;-85
2020/12/20 03:33:31;;;;;;;18.83;11.60;;;14.00;45.60;;;;;;5060910;28;20937;-85
2020/12/20 03:35:58;;;;;;;18.60;11.30;;;14.00;45.00;;;;;;5055838;28;20448;-86
2020/12/20 03:38:24;;;;;;;18.60;10.93;;;13.90;45.40;;;;;;5055635;28;20452;-85
2020/12/20 03:40:51;;;;;;;25.13;10.70;;;14.00;45.40;;;;;;5055324;28;20440;-85
2020/12/20 03:43:17;;;;;;;21.80;10.33;;;13.90;45.80;;;;;;5055446;28;20948;-85
2020/12/20 03:45:44;;;;;;;14.97;10.00;;;14.10;45.40;;;;;;5054978;28;20506;-85
2020/12/20 03:48:11;;;;;;;16.33;9.93;;;13.60;43.90;;;;;;5055459;28;20983;-86
2020/12/20 03:50:38;;;;;;;17.37;11.23;;;13.80;46.00;;;;;;5055377;28;20448;-85
2020/12/20 03:53:04;;;;;;;25.23;11.63;;;13.70;43.40;;;;;;5055086;28;20444;-85
2020/12/20 03:55:30;;;;;;;16.57;10.00;;;13.60;44.20;;;;;;5055052;28;20479;-85
2020/12/20 03:57:57;;;;;;;18.00;10.10;;;13.60;45.80;;;;;;5054996;28;20435;-85
2020/12/20 04:00:23;;;;;;;19.40;10.60;;;13.80;46.00;;;;;;5062501;28;20810;-85
2020/12/20 04:02:50;;;;;;;18.30;10.93;;;14.10;45.60;;;;;;5070348;28;20488;-85
2020/12/20 04:05:17;;;;;;;19.87;11.10;;;14.30;44.80;;;;;;5069928;28;20461;-85
2020/12/20 04:07:44;;;;;;;16.03;10.17;;;14.10;44.30;;;;;;5062917;28;20842;-86
2020/12/20 04:10:11;;;;;;;13.83;9.53;;;14.30;43.80;;;;;;5056223;28;20452;-85
2020/12/20 04:12:37;;;;;;;19.73;11.20;;;13.90;45.20;;;;;;5055893;28;20452;-85
2020/12/20 04:15:04;;;;;;;18.50;10.60;;;13.50;43.30;;;;;;5055374;28;20510;-85
2020/12/20 04:17:31;;;;;;;18.00;11.13;;;13.90;46.10;;;;;;5054808;28;20441;-85
2020/12/20 04:19:57;;;;;;;20.27;10.60;;;13.40;43.70;;;;;;5054997;28;20444;-85
2020/12/20 04:22:25;;;;;;;17.23;10.80;;;12.80;45.90;;;;;;5054476;28;20483;-85
2020/12/20 04:24:51;;;;;;;14.60;10.17;;;13.00;45.50;;;;;;5054694;28;20464;-85
2020/12/20 04:27:18;;;;;;;15.23;10.53;;;12.80;46.60;;;;;;5054759;28;20447;-85
2020/12/20 04:29:44;;;;;;;13.97;9.50;;;13.10;46.40;;;;;;5053999;28;20948;-85
2020/12/20 04:32:11;;;;;;;18.90;9.80;;;12.90;47.00;;;;;;5054901;28;20462;-85
2020/12/20 04:34:37;;;;;;;26.13;10.40;;;12.70;45.00;;;;;;5054874;28;20806;-85
2020/12/20 04:37:04;;;;;;;21.53;11.10;;;13.20;45.40;;;;;;5054785;28;20451;-85
2020/12/20 04:39:31;;;;;;;19.23;11.80;;;13.20;45.10;;;;;;5054596;28;20447;-85
2020/12/20 04:41:59;;;;;;;16.50;10.03;;;12.60;47.00;;;;;;5054541;28;20476;-85
2020/12/20 04:44:26;;;;;;;14.77;9.77;;;12.90;48.10;;;;;;5054461;28;20473;-85
2020/12/20 04:46:53;;;;;;;15.67;11.20;;;12.90;47.50;;;;;;5054279;28;20450;-85
2020/12/20 04:49:23;;;;;;;17.50;9.80;;;12.90;45.30;;;;;;5054892;28;20452;-85
2020/12/20 04:51:50;;;;;;;14.70;9.40;;;13.30;47.50;;;;;;5054464;28;20543;-85
2020/12/20 04:54:17;;;;;;;16.40;9.93;;;13.10;46.10;;;;;;5053806;28;20475;-85
2020/12/20 04:56:45;;;;;;;15.97;9.60;;;13.50;47.00;;;;;;5054008;28;20459;-85
2020/12/20 04:59:13;;;;;;;18.67;11.40;;;13.80;47.20;;;;;;5054412;28;20444;-85
2020/12/20 05:01:40;;;;;;;18.40;11.00;;;13.70;46.30;;;;;;5055361;28;20448;-86
2020/12/20 05:04:07;;;;;;;17.83;10.50;;;13.30;44.70;;;;;;5053769;28;20464;-86
2020/12/20 05:06:34;;;;;;;26.07;12.50;;;13.20;47.00;;;;;;5053918;28;20442;-85
2020/12/20 05:09:03;;;;;;;21.23;11.60;;;13.70;47.00;;;;;;5054016;28;20530;-85
2020/12/20 05:11:37;;;;;;;14.90;9.90;;;13.90;46.10;;;;;;5053909;28;20503;-85
2020/12/20 05:14:05;;;;;;;18.53;9.77;;;14.20;46.40;;;;;;5053595;28;20452;-85
2020/12/20 05:16:36;;;;;;;16.30;10.00;;;14.30;46.30;;;;;;5054502;28;20449;-85
2020/12/20 05:19:04;;;;;;;16.93;10.63;;;14.50;45.80;;;;;;5053848;28;20460;-85
2020/12/20 05:21:31;;;;;;;16.70;10.00;;;14.40;45.10;;;;;;5053775;28;20518;-86
2020/12/20 05:23:58;;;;;;;18.60;11.30;;;14.40;45.80;;;;;;5053699;28;20492;-85
2020/12/20 05:26:26;;;;;;;15.77;10.83;;;14.20;43.70;;;;;;5053777;28;20452;-85
2020/12/20 05:29:06;;;;;;;18.87;11.00;;;13.90;46.00;;;;;;5053785;28;20452;-85
2020/12/20 05:31:33;;;;;;;21.27;12.23;;;13.90;46.10;;;;;;5053905;28;20515;-85
2020/12/20 05:34:00;;;;;;;17.43;10.97;;;14.10;45.90;;;;;;5053698;28;20537;-86
2020/12/20 05:36:28;;;;;;;20.73;11.50;;;14.40;44.90;;;;;;5053358;28;20502;-85
2020/12/20 05:39:10;;;;;;;20.97;12.00;;;14.30;45.50;;;;;;5053293;28;20428;-85
2020/12/20 05:41:37;;;;;;;20.87;12.10;;;13.60;43.50;;;;;;5052630;28;20852;-85
2020/12/20 05:44:18;;;;;;;16.43;10.70;;;13.30;45.50;;;;;;5053403;28;20487;-85
2020/12/20 05:46:47;;;;;;;16.90;9.77;;;13.10;45.40;;;;;;5053688;28;20843;-85
2020/12/20 05:49:18;;;;;;;14.67;9.73;;;12.90;45.00;;;;;;5053394;28;20428;-85
2020/12/20 05:52:02;;;;;;;14.23;9.50;;;13.00;47.00;;;;;;5053455;28;20455;-85
2020/12/20 05:54:33;;;;;;;20.17;11.23;;;13.60;47.00;;;;;;5053378;28;20551;-85
2020/12/20 05:57:08;;;;;;;19.30;10.40;;;13.60;46.10;;;;;;5053414;28;20455;-85
2020/12/20 05:59:34;;;;;;;16.43;9.23;;;13.40;46.10;;;;;;5053532;28;20447;-85
2020/12/20 06:02:03;;;;;;;18.43;9.70;;;13.10;45.90;;;;;;5053523;28;20566;-85
2020/12/20 06:04:30;;;;;;;20.23;11.50;;;13.00;47.10;;;;;;5053338;28;20514;-84
2020/12/20 06:06:58;;;;;;;17.07;9.37;;;13.10;44.80;;;;;;5053184;28;20543;-84
2020/12/20 06:09:26;;;;;;;18.10;9.30;;;13.50;47.10;;;;;;5053722;28;20475;-84
2020/12/20 06:11:57;;;;;;;21.13;10.07;;;13.80;46.00;;;;;;5053213;28;20433;-84
2020/12/20 06:14:26;;;;;;;12.63;9.60;;;13.80;45.70;;;;;;5053208;28;20483;-86
2020/12/20 06:17:13;;;;;;;14.63;9.20;;;14.30;44.90;;;;;;5053521;28;20452;-86
2020/12/20 06:19:59;;;;;;;18.20;10.90;;;14.20;45.60;;;;;;5054175;28;20456;-85
2020/12/20 06:22:28;;;;;;;15.10;9.30;;;14.10;44.10;;;;;;5052749;28;21022;-85
2020/12/20 06:24:57;;;;;;;13.57;9.30;;;14.10;45.90;;;;;;5055528;28;20479;-85
2020/12/20 06:27:25;;;;;;;14.90;9.50;;;14.10;45.60;;;;;;5053413;28;20448;-85
2020/12/20 06:29:54;;;;;;;14.53;9.97;;;14.10;45.30;;;;;;5054526;28;20448;-85
2020/12/20 06:32:26;;;;;;;15.67;9.50;;;14.00;45.80;;;;;;5053939;28;20440;-85
2020/12/20 06:34:54;;;;;;;14.83;9.80;;;13.90;45.80;;;;;;5053868;28;20468;-85
2020/12/20 06:37:22;;;;;;;20.80;9.60;;;14.00;45.00;;;;;;5054799;28;20527;-85
2020/12/20 06:39:49;;;;;;;15.70;10.07;;;14.10;44.90;;;;;;5057462;28;20456;-85
2020/12/20 06:42:16;;;;;;;14.53;9.90;;;13.10;43.30;;;;;;5055755;28;20476;-86
2020/12/20 06:44:42;;;;;;;15.93;10.67;;;11.80;45.00;;;;;;5055346;28;21069;-84
2020/12/20 06:47:09;;;;;;;15.70;9.70;;;11.40;46.20;;;;;;5055189;28;20536;-85
2020/12/20 06:49:37;;;;;;;11.83;8.70;;;11.30;46.50;;;;;;5055390;28;20443;-84
2020/12/20 06:52:22;;;;;;;16.57;9.33;;;11.40;48.30;;;;;;5055693;28;20437;-85
2020/12/20 06:55:03;;;;;;;17.53;11.93;;;12.00;49.30;;;;;;5060587;28;20596;-84
2020/12/20 06:57:29;;;;;;;13.03;9.27;;;11.80;46.80;;;;;;5061265;28;20457;-84
2020/12/20 06:59:56;;;;;;;23.93;13.23;;;11.90;48.00;;;;;;5058542;28;20455;-84
2020/12/20 07:02:45;;;;;;;19.23;11.70;;;11.80;47.80;;;;;;5060783;28;21003;-84
2020/12/20 07:05:35;;;;;;;19.87;11.47;;;11.60;46.70;;;;;;5062931;28;20467;-85
2020/12/20 07:08:09;;;;;;;22.50;11.17;;;11.10;47.40;;;;;;5060190;28;20445;-85
2020/12/20 07:10:44;;;;;;;18.30;10.37;;;11.00;47.20;;;;;;5060035;28;20428;-85
2020/12/20 07:13:12;;;;;;;21.00;13.20;;;11.30;47.00;;;;;;5061443;28;20906;-85
2020/12/20 07:15:45;;;;;;;20.43;12.20;;;11.20;45.60;;;;;;5060977;28;20468;-85
2020/12/20 07:18:45;;;;;;;23.53;12.63;;;11.20;45.10;;;;;;5059695;28;20449;-85
2020/12/20 07:21:28;;;;;;;33.53;14.97;;;11.20;45.30;;;;;;5059055;28;20941;-84
2020/12/20 07:24:02;;;;;;;23.70;12.73;;;11.20;45.50;;;;;;5061051;28;20487;-85
2020/12/20 07:26:28;;;;;;;16.77;11.10;;;10.90;45.80;;;;;;5060737;28;20429;-84
2020/12/20 07:28:58;;;;;;;16.43;11.77;;;10.80;46.40;;;;;;5061796;28;20491;-84
2020/12/20 07:31:25;;;;;;;19.10;12.07;;;11.00;45.60;;;;;;5056891;28;20447;-85
2020/12/20 07:33:51;;;;;;;22.07;12.73;;;10.80;45.90;;;;;;5057257;28;20551;-86
2020/12/20 07:36:20;;;;;;;17.93;11.47;;;11.00;45.80;;;;;;5055715;28;20437;-83
2020/12/20 07:38:47;;;;;;;18.77;12.07;;;11.20;45.90;;;;;;5056256;28;20452;-84
2020/12/20 07:41:14;;;;;;;16.17;11.37;;;11.10;45.80;;;;;;5058742;28;20450;-84
2020/12/20 07:43:41;;;;;;;20.57;11.80;;;11.10;45.50;;;;;;5059923;28;20502;-84
2020/12/20 07:46:10;;;;;;;19.23;11.97;;;11.00;45.10;;;;;;5063479;28;20444;-83
2020/12/20 07:48:37;;;;;;;18.30;11.37;;;11.10;45.00;;;;;;5062125;28;20457;-85
2020/12/20 07:51:08;;;;;;;27.43;16.17;;;11.30;46.10;;;;;;5062365;28;20482;-85
2020/12/20 07:53:36;;;;;;;27.33;18.20;;;11.40;45.30;;;;;;5062982;28;20455;-85
2020/12/20 07:56:03;;;;;;;21.87;12.70;;;11.30;45.10;;;;;;5066060;28;20421;-83
2020/12/20 07:58:32;;;;;;;22.63;12.80;;;11.20;46.80;;;;;;5064360;28;20453;-84
2020/12/20 08:01:03;;;;;;;23.60;14.70;;;11.40;48.20;;;;;;5063670;28;20448;-83
2020/12/20 08:03:30;;;;;;;21.20;13.10;;;11.40;45.50;;;;;;5061840;28;20484;-84
2020/12/20 08:06:04;;;;;;;24.60;13.37;;;11.30;45.50;;;;;;5063055;28;20460;-84
2020/12/20 08:08:31;;;;;;;24.63;12.87;;;11.30;45.40;;;;;;5062695;28;20904;-83
2020/12/20 08:11:03;;;;;;;24.40;14.27;;;11.50;45.30;;;;;;5064086;28;20518;-84
2020/12/20 08:13:30;;;;;;;20.60;13.20;;;11.50;45.30;;;;;;5063898;28;20455;-83
2020/12/20 08:15:57;;;;;;;20.40;12.47;;;11.50;45.60;;;;;;5062066;28;20453;-83
2020/12/20 08:18:24;;;;;;;20.00;13.63;;;11.50;45.70;;;;;;5062056;28;20452;-83
2020/12/20 08:20:51;;;;;;;19.57;12.80;;;11.40;45.70;;;;;;5063010;28;20576;-83
2020/12/20 08:23:21;;;;;;;29.93;16.33;;;11.40;45.60;;;;;;5060902;28;20481;-83
2020/12/20 08:25:48;;;;;;;27.57;15.53;;;11.80;45.10;;;;;;5061520;28;20543;-83
2020/12/20 08:28:16;;;;;;;25.13;14.40;;;11.70;44.90;;;;;;5060881;28;20436;-82
2020/12/20 08:30:42;;;;;;;21.60;12.97;;;11.60;45.00;;;;;;5060803;28;20449;-84
2020/12/20 08:33:09;;;;;;;18.77;12.70;;;11.70;45.10;;;;;;5067603;28;20435;-83
2020/12/20 08:35:35;;;;;;;33.33;16.93;;;11.70;45.00;;;;;;5073606;28;20472;-83
2020/12/20 08:38:02;;;;;;;23.37;13.90;;;11.90;45.20;;;;;;5073721;28;20454;-83
2020/12/20 08:40:34;;;;;;;19.13;11.97;;;12.10;44.50;;;;;;5070144;28;20443;-83
2020/12/20 08:43:02;;;;;;;22.10;12.37;;;12.10;45.60;;;;;;5063588;28;20493;-83
2020/12/20 08:45:29;;;;;;;25.07;16.57;;;12.10;45.70;;;;;;5061581;28;20476;-83
2020/12/20 08:48:03;;;;;;;72.67;37.40;;;12.40;46.20;;;;;;5060977;28;20475;-83
2020/12/20 08:50:31;;;;;;;36.57;21.40;;;12.50;44.30;;;;;;5060789;28;20937;-83
2020/12/20 08:52:59;;;;;;;44.00;24.07;;;12.40;43.70;;;;;;5061652;28;20441;-83
2020/12/20 08:55:26;;;;;;;21.50;13.63;;;12.20;44.30;;;;;;5060646;28;20478;-83
2020/12/20 08:58:01;;;;;;;16.40;11.00;;;12.40;43.80;;;;;;5060454;28;20953;-83
2020/12/20 09:00:29;;;;;;;18.93;11.37;;;12.30;43.30;;;;;;5062616;28;20925;-84
2020/12/20 09:02:59;;;;;;;20.67;12.10;;;12.10;43.30;;;;;;5061743;28;20484;-84
2020/12/20 09:05:30;;;;;;;18.67;12.70;;;11.80;43.70;;;;;;5061669;28;20459;-83
2020/12/20 09:07:57;;;;;;;20.07;13.90;;;11.80;44.20;;;;;;5063871;28;20455;-83
2020/12/20 09:10:30;;;;;;;26.73;14.50;;;11.90;44.20;;;;;;5062912;28;20965;-83
2020/12/20 09:12:58;;;;;;;19.07;12.40;;;12.00;44.20;;;;;;5060772;28;20456;-83
2020/12/20 09:15:32;;;;;;;26.27;14.97;;;12.00;44.30;;;;;;5061027;28;20886;-83
2020/12/20 09:18:01;;;;;;;22.47;13.70;;;12.00;44.40;;;;;;5061543;28;20489;-83
2020/12/20 09:20:30;;;;;;;22.60;12.40;;;12.00;43.70;;;;;;5067678;28;20868;-84
2020/12/20 09:22:58;;;;;;;15.60;11.37;;;11.90;43.90;;;;;;5067933;28;20475;-83
2020/12/20 09:25:38;;;;;;;23.10;13.80;;;11.90;43.40;;;;;;5065599;28;20465;-83
2020/12/20 09:28:06;;;;;;;18.80;11.97;;;12.00;43.90;;;;;;5062486;28;20450;-84
2020/12/20 09:30:42;;;;;;;24.23;14.30;;;12.00;43.60;;;;;;5062092;28;20459;-83
2020/12/20 09:33:20;;;;;;;23.37;15.03;;;12.30;43.40;;;;;;5060862;28;20433;-83
2020/12/20 09:35:54;;;;;;;22.80;13.80;;;12.20;43.60;;;;;;5062871;28;20498;-83
2020/12/20 09:38:20;;;;;;;22.70;14.67;;;12.40;43.30;;;;;;5062028;28;20490;-83
2020/12/20 09:40:47;;;;;;;24.57;15.70;;;12.10;44.30;;;;;;5060850;28;20463;-83
2020/12/20 09:43:20;;;;;;;23.30;13.80;;;12.30;44.20;;;;;;5059340;28;20978;-84
2020/12/20 09:45:47;;;;;;;40.20;20.23;;;12.60;44.00;;;;;;5060957;28;20468;-82
2020/12/20 09:48:14;;;;;;;32.47;14.67;;;12.80;43.50;;;;;;5061216;28;20460;-82
2020/12/20 09:50:40;;;;;;;27.50;16.67;;;12.80;42.50;;;;;;5060632;28;20792;-83
2020/12/20 09:53:07;;;;;;;33.03;18.97;;;13.00;43.00;;;;;;5059562;28;20455;-83
2020/12/20 09:55:34;;;;;;;25.40;13.37;;;13.30;42.50;;;;;;5061750;28;20490;-83
2020/12/20 09:58:00;;;;;;;19.60;12.40;;;13.50;42.40;;;;;;5061723;28;20456;-84
2020/12/20 10:00:27;;;;;;;39.07;14.10;;;13.50;42.30;;;;;;5061930;28;20462;-83
2020/12/20 10:02:54;;;;;;;19.70;12.20;;;13.50;42.60;;;;;;5059809;28;21114;-83
2020/12/20 10:05:20;;;;;;;21.77;13.27;;;13.50;42.60;;;;;;5060107;28;20483;-83
2020/12/20 10:07:47;;;;;;;19.53;11.50;;;13.60;42.50;;;;;;5062000;28;20456;-84
2020/12/20 10:10:13;;;;;;;19.70;11.97;;;13.60;42.40;;;;;;5060747;28;20436;-84
2020/12/20 10:12:40;;;;;;;21.47;13.23;;;13.60;42.50;;;;;;5063172;28;20758;-84
2020/12/20 10:15:06;;;;;;;20.03;13.70;;;13.70;42.40;;;;;;5061531;28;20892;-85
2020/12/20 10:17:33;;;;;;;31.03;15.40;;;13.80;42.50;;;;;;5060608;28;20618;-85
2020/12/20 10:20:00;;;;;;;23.00;14.87;;;13.90;42.40;;;;;;5056491;28;20501;-83
2020/12/20 10:22:27;;;;;;;24.87;15.70;;;13.90;42.10;;;;;;5059956;28;20488;-83
2020/12/20 10:24:53;;;;;;;24.93;13.90;;;14.00;42.20;;;;;;5059603;28;20499;-84
2020/12/20 10:27:20;;;;;;;23.77;14.80;;;14.20;42.00;;;;;;5061487;28;20444;-83
2020/12/20 10:29:47;;;;;;;24.17;12.67;;;14.20;41.70;;;;;;5063389;28;20429;-83
2020/12/20 10:32:14;;;;;;;18.40;12.80;;;14.10;41.50;;;;;;5068324;28;20448;-83
2020/12/20 10:34:40;;;;;;;20.07;12.20;;;14.30;41.60;;;;;;5077810;28;20544;-83
2020/12/20 10:37:07;;;;;;;21.30;13.50;;;14.40;41.30;;;;;;5076861;28;20440;-83
2020/12/20 10:39:34;;;;;;;17.37;12.00;;;14.50;41.10;;;;;;5078402;28;20428;-84
2020/12/20 10:42:00;;;;;;;17.47;11.20;;;14.60;41.00;;;;;;5079460;28;20448;-83
2020/12/20 10:44:28;;;;;;;17.33;11.53;;;14.70;40.30;;;;;;5074576;28;20518;-84
2020/12/20 10:46:54;;;;;;;16.30;10.80;;;14.50;40.60;;;;;;5074027;28;20458;-83
2020/12/20 10:49:21;;;;;;;16.97;10.90;;;14.60;40.70;;;;;;5073731;28;20438;-84
2020/12/20 10:51:52;;;;;;;17.07;10.87;;;14.80;40.30;;;;;;5070998;28;20428;-84
2020/12/20 10:54:20;;;;;;;18.70;10.70;;;15.10;40.20;;;;;;5077850;28;20480;-84
2020/12/20 10:56:48;;;;;;;23.40;11.20;;;14.90;39.90;;;;;;5075718;28;20453;-84
2020/12/20 10:59:14;;;;;;;22.90;11.20;;;14.90;39.90;;;;;;5077081;28;20448;-84
2020/12/20 11:01:41;;;;;;;13.50;10.00;;;15.10;40.10;;;;;;5077128;28;20449;-84
2020/12/20 11:04:07;;;;;;;19.03;10.90;;;15.10;39.80;;;;;;5073684;28;20489;-84
2020/12/20 11:06:34;;;;;;;18.27;10.60;;;14.90;39.80;;;;;;5071432;28;20459;-84
2020/12/20 11:09:01;;;;;;;16.50;10.23;;;15.00;40.00;;;;;;5072523;28;20948;-84
2020/12/20 11:11:32;;;;;;;15.30;10.30;;;15.00;40.00;;;;;;5069446;28;20440;-84
2020/12/20 11:14:00;;;;;;;61.87;27.80;;;15.20;40.10;;;;;;5067166;28;20472;-84
2020/12/20 11:16:26;;;;;;;23.50;13.83;;;15.20;39.80;;;;;;5062712;28;20444;-83
2020/12/20 11:18:53;;;;;;;23.30;12.53;;;15.10;39.50;;;;;;5060995;28;20442;-84
2020/12/20 11:21:20;;;;;;;17.10;10.30;;;15.00;38.90;;;;;;5060809;28;20448;-83
2020/12/20 11:23:48;;;;;;;20.60;11.97;;;15.10;39.90;;;;;;5061152;28;22160;-84
2020/12/20 11:26:16;;;;;;;17.60;10.83;;;15.10;39.10;;;;;;5064336;28;20453;-83
2020/12/20 11:28:45;;;;;;;18.80;10.97;;;14.80;39.80;;;;;;5063700;28;20460;-83
2020/12/20 11:31:12;;;;;;;31.13;16.23;;;14.30;40.60;;;;;;5068260;28;20877;-83
2020/12/20 11:33:39;;;;;;;26.00;13.30;;;14.00;42.30;;;;;;5065424;28;20433;-82
2020/12/20 11:36:06;;;;;;;40.03;17.10;;;14.50;41.10;;;;;;5067215;28;20444;-84
2020/12/20 11:38:35;;;;;;;50.17;26.60;;;14.60;41.10;;;;;;5065330;28;20453;-84
2020/12/20 11:41:04;;;;;;;15.57;9.97;;;14.70;40.80;;;;;;5066471;28;20436;-83
2020/12/20 11:43:30;;;;;;;17.70;11.53;;;14.20;41.60;;;;;;5068285;28;20482;-84
2020/12/20 11:45:58;;;;;;;18.27;11.00;;;14.40;41.40;;;;;;5063409;28;20459;-85
2020/12/20 11:48:25;;;;;;;22.63;10.80;;;15.00;41.70;;;;;;5068465;28;20436;-84
2020/12/20 11:50:51;;;;;;;16.07;9.37;;;15.40;40.30;;;;;;5067333;28;20454;-83
2020/12/20 11:53:18;;;;;;;18.73;10.23;;;15.00;40.00;;;;;;5064170;28;20439;-83
2020/12/20 11:55:44;;;;;;;15.10;9.40;;;14.40;41.60;;;;;;5063352;28;20482;-84
2020/12/20 11:58:12;;;;;;;13.87;9.70;;;14.50;41.20;;;;;;5063312;28;20505;-83
2020/12/20 12:00:41;;;;;;;17.13;10.33;;;14.70;40.90;;;;;;5066980;28;20481;-84
2020/12/20 12:03:08;;;;;;;23.07;10.03;;;15.20;40.10;;;;;;5068700;28;20512;-84
2020/12/20 12:05:36;;;;;;;14.97;9.70;;;15.20;39.90;;;;;;5066665;28;20460;-84
2020/12/20 12:08:03;;;;;;;14.63;8.93;;;15.40;40.00;;;;;;5065061;28;20447;-83
2020/12/20 12:10:30;;;;;;;13.70;10.20;;;15.80;40.70;;;;;;5062727;28;20451;-84
2020/12/20 12:12:56;;;;;;;19.30;11.87;;;15.60;39.70;;;;;;5056117;28;20547;-83
2020/12/20 12:15:23;;;;;;;14.87;9.80;;;15.20;40.10;;;;;;5060083;28;20482;-83
2020/12/20 12:17:49;;;;;;;16.17;10.20;;;14.80;41.20;;;;;;5061030;28;20452;-82
2020/12/20 12:20:17;;;;;;;16.23;10.70;;;14.40;41.60;;;;;;5062162;28;20453;-83
2020/12/20 12:22:43;;;;;;;16.20;10.17;;;14.90;41.70;;;;;;5060428;28;20491;-83
2020/12/20 12:25:10;;;;;;;15.50;9.97;;;15.60;40.50;;;;;;5060074;28;20968;-84
2020/12/20 12:27:36;;;;;;;16.10;10.23;;;15.90;40.80;;;;;;5058991;28;20550;-84
2020/12/20 12:30:03;;;;;;;24.63;12.50;;;16.00;39.80;;;;;;5059314;28;20459;-84
2020/12/20 12:32:30;;;;;;;18.47;11.20;;;16.20;39.70;;;;;;5059904;28;20451;-84